sensor_id;sensor_type;location;lat;lon;timestamp;pressure;altitude;pressure_sealevel;temperature;humidity
48778;BME280;34578;0.000;0.000;2023-05-21T00:01:46;96192.28;;;17.37;64.96
48778;BME280;34578;0.000;0.000;2023-05-21T00:06:47;96189.75;;;17.36;64.82
48778;BME280;34578;0.000;0.000;2023-05-21T00:11:47;96183.00;;;17.38;65.07
48778;BME280;34578;0.000;0.000;2023-05-21T00:16:48;96186.38;;;17.38;64.07
48778;BME280;34578;0.000;0.000;2023-05-21T00:21:48;96189.75;;;17.37;64.65
48778;BME280;34578;0.000;0.000;2023-05-21T00:26:49;96189.75;;;17.36;64.99
48778;BME280;34578;0.000;0.000;2023-05-21T00:31:49;96189.75;;;17.37;64.65
48778;BME280;34578;0.000;0.000;2023-05-21T00:36:51;96182.16;;;17.36;64.11
48778;BME280;34578;0.000;0.000;2023-05-21T00:41:54;96188.09;;;17.36;64.20
48778;BME280;34578;0.000;0.000;2023-05-21T00:46:56;96193.97;;;17.37;64.31
48778;BME280;34578;0.000;0.000;2023-05-21T00:51:56;96178.78;;;17.34;63.03
48778;BME280;34578;0.000;0.000;2023-05-21T00:57:01;96181.31;;;17.37;65.17
48778;BME280;34578;0.000;0.000;2023-05-21T01:02:02;96177.97;;;17.36;65.25
48778;BME280;34578;0.000;0.000;2023-05-21T01:07:05;96185.53;;;17.38;64.77
48778;BME280;34578;0.000;0.000;2023-05-21T01:12:08;96185.53;;;17.38;64.61
48778;BME280;34578;0.000;0.000;2023-05-21T01:17:10;96177.94;;;17.38;64.03
48778;BME280;34578;0.000;0.000;2023-05-21T01:22:12;96178.78;;;17.37;62.24
48778;BME280;34578;0.000;0.000;2023-05-21T01:27:13;96149.31;;;17.22;63.57
48778;BME280;34578;0.000;0.000;2023-05-21T01:37:26;96175.41;;;17.35;62.91
48778;BME280;34578;0.000;0.000;2023-05-21T01:42:29;96172.88;;;17.35;63.53
48778;BME280;34578;0.000;0.000;2023-05-21T01:47:31;96171.19;;;17.34;64.29
48778;BME280;34578;0.000;0.000;2023-05-21T01:52:32;96169.50;;;17.33;63.87
48778;BME280;34578;0.000;0.000;2023-05-21T01:57:32;96170.34;;;17.35;63.56
48778;BME280;34578;0.000;0.000;2023-05-21T02:02:33;96166.94;;;17.34;65.14
48778;BME280;34578;0.000;0.000;2023-05-21T02:07:33;96150.13;;;17.32;65.10
48778;BME280;34578;0.000;0.000;2023-05-21T02:12:34;96158.53;;;17.37;64.98
48778;BME280;34578;0.000;0.000;2023-05-21T02:17:35;96163.59;;;17.37;64.51
48778;BME280;34578;0.000;0.000;2023-05-21T02:22:46;96156.88;;;17.36;64.14
48778;BME280;34578;0.000;0.000;2023-05-21T02:27:46;96155.16;;;17.35;62.76
48778;BME280;34578;0.000;0.000;2023-05-21T02:32:47;96150.94;;;17.35;63.46
48778;BME280;34578;0.000;0.000;2023-05-21T02:37:48;96148.41;;;17.34;63.51
48778;BME280;34578;0.000;0.000;2023-05-21T02:42:49;96145.03;;;17.35;63.94
48778;BME280;34578;0.000;0.000;2023-05-21T02:47:53;96140.84;;;17.35;62.42
48778;BME280;34578;0.000;0.000;2023-05-21T02:52:53;96138.28;;;17.34;63.95
48778;BME280;34578;0.000;0.000;2023-05-21T02:57:54;96139.97;;;17.35;64.06
48778;BME280;34578;0.000;0.000;2023-05-21T03:02:54;96144.19;;;17.34;63.48
48778;BME280;34578;0.000;0.000;2023-05-21T03:07:55;96125.69;;;17.22;65.27
48778;BME280;34578;0.000;0.000;2023-05-21T03:12:55;96142.53;;;17.32;65.50
48778;BME280;34578;0.000;0.000;2023-05-21T03:17:56;96142.50;;;17.35;65.17
48778;BME280;34578;0.000;0.000;2023-05-21T03:22:56;96147.56;;;17.35;64.56
48778;BME280;34578;0.000;0.000;2023-05-21T03:27:57;96155.16;;;17.35;63.61
48778;BME280;34578;0.000;0.000;2023-05-21T03:33:24;96153.47;;;17.34;63.96
48778;BME280;34578;0.000;0.000;2023-05-21T03:38:24;96159.38;;;17.34;64.06
48778;BME280;34578;0.000;0.000;2023-05-21T03:43:24;96162.78;;;17.32;64.39
48778;BME280;34578;0.000;0.000;2023-05-21T03:48:25;96169.50;;;17.33;64.12
48778;BME280;34578;0.000;0.000;2023-05-21T03:53:25;96172.03;;;17.33;64.16
48778;BME280;34578;0.000;0.000;2023-05-21T03:58:26;96176.25;;;17.32;63.39
48778;BME280;34578;0.000;0.000;2023-05-21T04:03:27;96175.41;;;17.32;64.20
48778;BME280;34578;0.000;0.000;2023-05-21T04:08:28;96178.81;;;17.31;63.82
48778;BME280;34578;0.000;0.000;2023-05-21T04:13:28;96185.53;;;17.32;64.70
48778;BME280;34578;0.000;0.000;2023-05-21T04:18:28;96190.59;;;17.32;65.33
48778;BME280;34578;0.000;0.000;2023-05-21T04:23:29;96193.97;;;17.34;65.07
48778;BME280;34578;0.000;0.000;2023-05-21T04:28:31;96195.63;;;17.33;64.81
48778;BME280;34578;0.000;0.000;2023-05-21T04:33:33;96204.09;;;17.34;64.57
48778;BME280;34578;0.000;0.000;2023-05-21T04:38:34;96204.94;;;17.31;63.73
48778;BME280;34578;0.000;0.000;2023-05-21T04:43:38;96219.25;;;17.32;63.58
48778;BME280;34578;0.000;0.000;2023-05-21T04:48:43;96217.59;;;17.33;63.97
48778;BME280;34578;0.000;0.000;2023-05-21T04:53:44;96219.28;;;17.31;63.41
48778;BME280;34578;0.000;0.000;2023-05-21T04:58:45;96215.88;;;17.29;64.52
48778;BME280;34578;0.000;0.000;2023-05-21T05:03:47;96223.47;;;17.30;64.00
48778;BME280;34578;0.000;0.000;2023-05-21T05:08:48;96218.44;;;17.27;64.02
48778;BME280;34578;0.000;0.000;2023-05-21T05:13:51;96215.91;;;17.32;64.25
48778;BME280;34578;0.000;0.000;2023-05-21T05:18:54;96225.13;;;17.34;64.58
48778;BME280;34578;0.000;0.000;2023-05-21T05:23:55;96227.69;;;17.33;65.19
48778;BME280;34578;0.000;0.000;2023-05-21T05:29:00;96221.78;;;17.34;65.08
48778;BME280;34578;0.000;0.000;2023-05-21T05:34:00;96215.06;;;17.36;64.65
48778;BME280;34578;0.000;0.000;2023-05-21T05:39:02;96212.53;;;17.37;62.96
48778;BME280;34578;0.000;0.000;2023-05-21T05:44:02;96216.72;;;17.35;64.68
48778;BME280;34578;0.000;0.000;2023-05-21T05:49:06;96210.81;;;17.35;63.94
48778;BME280;34578;0.000;0.000;2023-05-21T05:54:06;96209.13;;;17.34;63.92
48778;BME280;34578;0.000;0.000;2023-05-21T05:59:08;96208.28;;;17.35;64.02
48778;BME280;34578;0.000;0.000;2023-05-21T06:04:11;96203.22;;;17.35;62.30
48778;BME280;34578;0.000;0.000;2023-05-21T06:09:11;96201.56;;;17.34;63.70
48778;BME280;34578;0.000;0.000;2023-05-21T06:14:12;96199.88;;;17.33;63.79
48778;BME280;34578;0.000;0.000;2023-05-21T06:19:12;96208.31;;;17.36;62.68
48778;BME280;34578;0.000;0.000;2023-05-21T06:24:13;96199.88;;;17.36;64.47
48778;BME280;34578;0.000;0.000;2023-05-21T06:29:13;96207.47;;;17.37;65.13
48778;BME280;34578;0.000;0.000;2023-05-21T06:34:13;96202.38;;;17.39;65.05
48778;BME280;34578;0.000;0.000;2023-05-21T06:39:14;96205.78;;;17.41;64.60
48778;BME280;34578;0.000;0.000;2023-05-21T06:44:15;96201.56;;;17.40;63.74
48778;BME280;34578;0.000;0.000;2023-05-21T06:49:41;96198.19;;;17.41;65.51
48778;BME280;34578;0.000;0.000;2023-05-21T06:54:44;96199.00;;;17.41;64.41
48778;BME280;34578;0.000;0.000;2023-05-21T06:59:45;96204.06;;;17.43;64.87
48778;BME280;34578;0.000;0.000;2023-05-21T07:04:45;96204.06;;;17.43;64.20
48778;BME280;34578;0.000;0.000;2023-05-21T07:09:46;96203.22;;;17.42;64.41
48778;BME280;34578;0.000;0.000;2023-05-21T07:14:46;96205.78;;;17.41;65.25
48778;BME280;34578;0.000;0.000;2023-05-21T07:19:46;96212.50;;;17.39;64.46
48778;BME280;34578;0.000;0.000;2023-05-21T07:24:47;96210.84;;;17.39;65.21
48778;BME280;34578;0.000;0.000;2023-05-21T07:29:48;96211.69;;;17.38;65.10
48778;BME280;34578;0.000;0.000;2023-05-21T07:34:49;96201.56;;;17.40;66.64
48778;BME280;34578;0.000;0.000;2023-05-21T07:39:51;96199.84;;;17.40;66.52
48778;BME280;34578;0.000;0.000;2023-05-21T07:44:51;96199.88;;;17.42;65.12
48778;BME280;34578;0.000;0.000;2023-05-21T07:49:52;96197.34;;;17.42;65.20
48778;BME280;34578;0.000;0.000;2023-05-21T07:54:52;96199.03;;;17.40;64.32
48778;BME280;34578;0.000;0.000;2023-05-21T07:59:56;96193.13;;;17.41;62.15
48778;BME280;34578;0.000;0.000;2023-05-21T08:04:56;96198.16;;;17.42;61.90
48778;BME280;34578;0.000;0.000;2023-05-21T08:09:58;96193.94;;;17.43;62.40
48778;BME280;34578;0.000;0.000;2023-05-21T08:14:59;96189.75;;;17.43;62.23
48778;BME280;34578;0.000;0.000;2023-05-21T08:20:00;96183.84;;;17.43;61.99
48778;BME280;34578;0.000;0.000;2023-05-21T08:25:02;96188.03;;;17.44;61.70
48778;BME280;34578;0.000;0.000;2023-05-21T08:30:04;96186.38;;;17.44;61.77
48778;BME280;34578;0.000;0.000;2023-05-21T08:35:06;96191.38;;;17.52;63.00
48778;BME280;34578;0.000;0.000;2023-05-21T08:40:22;96185.47;;;17.56;65.93
48778;BME280;34578;0.000;0.000;2023-05-21T08:45:23;96183.75;;;17.58;65.87
48778;BME280;34578;0.000;0.000;2023-05-21T08:50:25;96183.75;;;17.55;62.74
48778;BME280;34578;0.000;0.000;2023-05-21T08:55:27;96178.72;;;17.52;62.19
48778;BME280;34578;0.000;0.000;2023-05-21T09:00:28;96180.44;;;17.50;62.12
48778;BME280;34578;0.000;0.000;2023-05-21T09:05:29;96182.94;;;17.47;62.33
48778;BME280;34578;0.000;0.000;2023-05-21T09:10:46;96186.34;;;17.49;61.78
48778;BME280;34578;0.000;0.000;2023-05-21T09:15:50;96176.25;;;17.43;61.85
48778;BME280;34578;0.000;0.000;2023-05-21T09:20:52;96189.72;;;17.46;61.72
48778;BME280;34578;0.000;0.000;2023-05-21T09:25:54;96189.72;;;17.45;61.71
48778;BME280;34578;0.000;0.000;2023-05-21T09:31:02;96178.78;;;17.43;62.36
48778;BME280;34578;0.000;0.000;2023-05-21T09:36:06;96185.50;;;17.44;61.95
48778;BME280;34578;0.000;0.000;2023-05-21T09:41:07;96178.78;;;17.40;64.47
48778;BME280;34578;0.000;0.000;2023-05-21T09:46:08;96178.75;;;17.49;67.57
48778;BME280;34578;0.000;0.000;2023-05-21T09:51:17;96160.22;;;17.38;67.63
48778;BME280;34578;0.000;0.000;2023-05-21T09:56:25;96177.03;;;17.51;63.89
48778;BME280;34578;0.000;0.000;2023-05-21T10:01:26;96180.41;;;17.47;62.45
48778;BME280;34578;0.000;0.000;2023-05-21T10:06:30;96177.09;;;17.43;62.06
48778;BME280;34578;0.000;0.000;2023-05-21T10:11:31;96172.00;;;17.48;61.90
48778;BME280;34578;0.000;0.000;2023-05-21T10:16:34;96152.63;;;17.33;62.61
48778;BME280;34578;0.000;0.000;2023-05-21T10:21:35;96161.88;;;17.48;62.35
48778;BME280;34578;0.000;0.000;2023-05-21T10:26:37;96150.09;;;17.39;63.36
48778;BME280;34578;0.000;0.000;2023-05-21T10:31:37;96171.97;;;17.54;62.97
48778;BME280;34578;0.000;0.000;2023-05-21T10:36:38;96161.84;;;17.54;63.37
48778;BME280;34578;0.000;0.000;2023-05-21T10:41:55;96170.28;;;17.56;64.48
48778;BME280;34578;0.000;0.000;2023-05-21T11:02:47;96157.53;;;17.66;64.24
48778;BME280;34578;0.000;0.000;2023-05-21T11:07:52;96165.16;;;17.63;64.28
48778;BME280;34578;0.000;0.000;2023-05-21T11:13:13;96155.06;;;17.59;64.11
48778;BME280;34578;0.000;0.000;2023-05-21T11:18:16;96156.72;;;17.63;62.78
48778;BME280;34578;0.000;0.000;2023-05-21T11:23:17;96161.78;;;17.63;62.78
48778;BME280;34578;0.000;0.000;2023-05-21T11:28:32;96151.66;;;17.63;62.58
48778;BME280;34578;0.000;0.000;2023-05-21T11:33:33;96153.38;;;17.62;62.46
48778;BME280;34578;0.000;0.000;2023-05-21T11:38:33;96160.09;;;17.62;62.76
48778;BME280;34578;0.000;0.000;2023-05-21T11:43:42;96154.16;;;17.70;67.13
48778;BME280;34578;0.000;0.000;2023-05-21T11:48:43;96152.47;;;17.66;63.19
48778;BME280;34578;0.000;0.000;2023-05-21T11:53:44;96148.28;;;17.67;62.84
48778;BME280;34578;0.000;0.000;2023-05-21T11:58:45;96154.13;;;17.75;68.67
48778;BME280;34578;0.000;0.000;2023-05-21T12:03:45;96153.28;;;17.76;67.11
48778;BME280;34578;0.000;0.000;2023-05-21T12:08:50;96141.47;;;17.72;63.24
48778;BME280;34578;0.000;0.000;2023-05-21T12:13:51;96145.75;;;17.67;63.01
48778;BME280;34578;0.000;0.000;2023-05-21T12:18:53;96151.66;;;17.66;63.07
48778;BME280;34578;0.000;0.000;2023-05-21T12:23:53;96166.03;;;17.62;62.62
48778;BME280;34578;0.000;0.000;2023-05-21T12:28:54;96173.59;;;17.64;62.78
48778;BME280;34578;0.000;0.000;2023-05-21T12:33:55;96182.03;;;17.63;62.55
48778;BME280;34578;0.000;0.000;2023-05-21T12:38:56;96175.28;;;17.62;62.50
48778;BME280;34578;0.000;0.000;2023-05-21T12:43:56;96181.22;;;17.62;62.70
48778;BME280;34578;0.000;0.000;2023-05-21T12:48:57;96197.22;;;17.63;62.28
48778;BME280;34578;0.000;0.000;2023-05-21T12:53:57;96205.66;;;17.62;62.28
48778;BME280;34578;0.000;0.000;2023-05-21T12:58:58;96204.00;;;17.62;62.36
48778;BME280;34578;0.000;0.000;2023-05-21T13:03:58;96197.16;;;17.72;67.63
48778;BME280;34578;0.000;0.000;2023-05-21T13:08:58;96198.84;;;17.76;68.80
48778;BME280;34578;0.000;0.000;2023-05-21T13:13:59;96203.94;;;17.70;63.50
48778;BME280;34578;0.000;0.000;2023-05-21T13:18:59;96197.22;;;17.66;62.37
48778;BME280;34578;0.000;0.000;2023-05-21T13:24:00;96188.78;;;17.64;62.04
48778;BME280;34578;0.000;0.000;2023-05-21T13:29:00;96197.25;;;17.60;64.70
48778;BME280;34578;0.000;0.000;2023-05-21T13:34:01;96196.38;;;17.64;62.23
48778;BME280;34578;0.000;0.000;2023-05-21T13:39:01;96187.94;;;17.63;62.19
48778;BME280;34578;0.000;0.000;2023-05-21T13:44:02;96191.31;;;17.64;61.92
48778;BME280;34578;0.000;0.000;2023-05-21T13:49:02;96188.81;;;17.62;62.00
48778;BME280;34578;0.000;0.000;2023-05-21T13:54:03;96193.84;;;17.61;61.82
48778;BME280;34578;0.000;0.000;2023-05-21T13:59:03;96192.16;;;17.63;61.72
48778;BME280;34578;0.000;0.000;2023-05-21T14:04:03;96183.75;;;17.61;61.82
48778;BME280;34578;0.000;0.000;2023-05-21T14:09:04;96177.78;;;17.74;66.40
48778;BME280;34578;0.000;0.000;2023-05-21T14:14:05;96162.56;;;17.77;67.28
48778;BME280;34578;0.000;0.000;2023-05-21T14:19:06;96138.94;;;17.72;63.60
48778;BME280;34578;0.000;0.000;2023-05-21T14:24:06;96138.16;;;17.67;62.03
48778;BME280;34578;0.000;0.000;2023-05-21T14:29:07;96160.06;;;17.66;61.82
48778;BME280;34578;0.000;0.000;2023-05-21T14:34:07;96156.72;;;17.63;61.91
48778;BME280;34578;0.000;0.000;2023-05-21T14:39:08;96150.00;;;17.60;61.80
48778;BME280;34578;0.000;0.000;2023-05-21T14:44:08;96160.09;;;17.62;61.81
48778;BME280;34578;0.000;0.000;2023-05-21T14:49:09;96171.94;;;17.61;61.76
48778;BME280;34578;0.000;0.000;2023-05-21T14:54:10;96167.72;;;17.60;61.96
48778;BME280;34578;0.000;0.000;2023-05-21T14:59:11;96178.66;;;17.64;63.46
48778;BME280;34578;0.000;0.000;2023-05-21T15:04:11;96176.97;;;17.63;62.95
48778;BME280;34578;0.000;0.000;2023-05-21T15:09:12;96175.28;;;17.65;65.50
48778;BME280;34578;0.000;0.000;2023-05-21T15:14:12;96190.38;;;17.80;69.18
48778;BME280;34578;0.000;0.000;2023-05-21T15:19:12;96200.47;;;17.86;68.68
48778;BME280;34578;0.000;0.000;2023-05-21T15:24:13;96225.00;;;17.76;65.24
48778;BME280;34578;0.000;0.000;2023-05-21T15:29:13;96214.91;;;17.69;63.45
48778;BME280;34578;0.000;0.000;2023-05-21T15:34:14;96188.81;;;17.55;62.78
48778;BME280;34578;0.000;0.000;2023-05-21T15:39:14;96219.16;;;17.64;62.81
48778;BME280;34578;0.000;0.000;2023-05-21T15:44:15;96230.97;;;17.62;62.71
48778;BME280;34578;0.000;0.000;2023-05-21T15:49:16;96239.41;;;17.61;62.60
48778;BME280;34578;0.000;0.000;2023-05-21T15:54:16;96258.00;;;17.60;63.13
48778;BME280;34578;0.000;0.000;2023-05-21T15:59:17;96274.84;;;17.61;62.63
48778;BME280;34578;0.000;0.000;2023-05-21T16:04:17;96293.41;;;17.63;65.00
48778;BME280;34578;0.000;0.000;2023-05-21T16:09:20;96279.91;;;17.61;62.99
48778;BME280;34578;0.000;0.000;2023-05-21T16:14:20;96289.22;;;17.59;62.68
48778;BME280;34578;0.000;0.000;2023-05-21T16:19:24;96288.34;;;17.66;69.50
48778;BME280;34578;0.000;0.000;2023-05-21T16:24:25;96289.13;;;17.75;69.52
48778;BME280;34578;0.000;0.000;2023-05-21T16:29:25;96279.03;;;17.71;65.63
48778;BME280;34578;0.000;0.000;2023-05-21T16:34:26;96288.31;;;17.69;63.20
48778;BME280;34578;0.000;0.000;2023-05-21T16:39:26;96289.19;;;17.66;63.53
48778;BME280;34578;0.000;0.000;2023-05-21T16:44:26;96284.97;;;17.67;62.93
48778;BME280;34578;0.000;0.000;2023-05-21T16:49:29;96273.16;;;17.66;62.33
48778;BME280;34578;0.000;0.000;2023-05-21T16:54:29;96277.38;;;17.65;62.73
48778;BME280;34578;0.000;0.000;2023-05-21T16:59:30;96274.84;;;17.64;62.46
48778;BME280;34578;0.000;0.000;2023-05-21T17:04:30;96276.53;;;17.62;62.46
48778;BME280;34578;0.000;0.000;2023-05-21T17:09:30;96274.84;;;17.61;62.76
48778;BME280;34578;0.000;0.000;2023-05-21T17:14:31;96277.38;;;17.59;62.26
48778;BME280;34578;0.000;0.000;2023-05-21T17:19:31;96270.66;;;17.60;62.26
48778;BME280;34578;0.000;0.000;2023-05-21T17:24:31;96257.94;;;17.69;69.19
48778;BME280;34578;0.000;0.000;2023-05-21T17:29:32;96257.09;;;17.74;70.35
48778;BME280;34578;0.000;0.000;2023-05-21T17:34:32;96256.25;;;17.74;69.13
48778;BME280;34578;0.000;0.000;2023-05-21T17:39:33;96251.22;;;17.68;64.43
48778;BME280;34578;0.000;0.000;2023-05-21T17:44:33;96258.81;;;17.63;63.40
48778;BME280;34578;0.000;0.000;2023-05-21T17:49:33;96253.78;;;17.60;63.04
48778;BME280;34578;0.000;0.000;2023-05-21T17:54:34;96263.06;;;17.60;63.07
48778;BME280;34578;0.000;0.000;2023-05-21T17:59:34;96258.84;;;17.57;62.56
48778;BME280;34578;0.000;0.000;2023-05-21T18:04:34;96263.06;;;17.57;62.55
48778;BME280;34578;0.000;0.000;2023-05-21T18:09:35;96252.94;;;17.60;63.31
48778;BME280;34578;0.000;0.000;2023-05-21T18:14:35;96248.72;;;17.57;62.81
48778;BME280;34578;0.000;0.000;2023-05-21T18:19:35;96247.03;;;17.58;62.69
48778;BME280;34578;0.000;0.000;2023-05-21T18:24:36;96252.97;;;17.57;62.71
48778;BME280;34578;0.000;0.000;2023-05-21T18:29:37;96246.16;;;17.62;65.44
48778;BME280;34578;0.000;0.000;2023-05-21T18:34:37;96246.13;;;17.71;70.08
48778;BME280;34578;0.000;0.000;2023-05-21T18:39:38;96242.75;;;17.75;70.25
48778;BME280;34578;0.000;0.000;2023-05-21T18:44:38;96250.34;;;17.70;66.42
48778;BME280;34578;0.000;0.000;2023-05-21T18:49:38;96257.13;;;17.64;63.84
48778;BME280;34578;0.000;0.000;2023-05-21T18:54:39;96256.31;;;17.60;63.43
48778;BME280;34578;0.000;0.000;2023-05-21T18:59:39;96255.47;;;17.58;63.43
48778;BME280;34578;0.000;0.000;2023-05-21T19:04:40;96258.88;;;17.54;63.18
48778;BME280;34578;0.000;0.000;2023-05-21T19:09:40;96261.41;;;17.56;62.82
48778;BME280;34578;0.000;0.000;2023-05-21T19:14:40;96273.19;;;17.54;62.59
48778;BME280;34578;0.000;0.000;2023-05-21T19:19:43;96274.88;;;17.55;62.79
48778;BME280;34578;0.000;0.000;2023-05-21T19:24:44;96279.09;;;17.54;62.67
48778;BME280;34578;0.000;0.000;2023-05-21T19:29:46;96282.50;;;17.53;62.44
48778;BME280;34578;0.000;0.000;2023-05-21T19:34:47;96285.78;;;17.67;70.22
48778;BME280;34578;0.000;0.000;2023-05-21T19:39:47;96284.94;;;17.70;70.08
48778;BME280;34578;0.000;0.000;2023-05-21T19:44:49;96270.66;;;17.54;67.01
48778;BME280;34578;0.000;0.000;2023-05-21T19:49:49;96297.63;;;17.61;63.83
48778;BME280;34578;0.000;0.000;2023-05-21T19:54:49;96303.56;;;17.57;63.02
48778;BME280;34578;0.000;0.000;2023-05-21T19:59:50;96306.97;;;17.56;63.10
48778;BME280;34578;0.000;0.000;2023-05-21T20:04:51;96316.22;;;17.55;62.81
48778;BME280;34578;0.000;0.000;2023-05-21T20:09:55;96321.28;;;17.54;62.98
48778;BME280;34578;0.000;0.000;2023-05-21T20:14:56;96321.28;;;17.54;62.60
48778;BME280;34578;0.000;0.000;2023-05-21T20:20:00;96327.19;;;17.53;62.48
48778;BME280;34578;0.000;0.000;2023-05-21T20:25:03;96322.97;;;17.52;62.39
48778;BME280;34578;0.000;0.000;2023-05-21T20:30:07;96325.50;;;17.52;62.27
48778;BME280;34578;0.000;0.000;2023-05-21T20:35:07;96324.66;;;17.51;62.21
48778;BME280;34578;0.000;0.000;2023-05-21T20:40:08;96323.78;;;17.63;69.74
48778;BME280;34578;0.000;0.000;2023-05-21T20:45:09;96322.06;;;17.71;69.61
48778;BME280;34578;0.000;0.000;2023-05-21T20:50:11;96323.75;;;17.72;69.43
48778;BME280;34578;0.000;0.000;2023-05-21T20:55:12;96321.25;;;17.63;63.72
48778;BME280;34578;0.000;0.000;2023-05-21T21:00:13;96331.41;;;17.61;62.57
48778;BME280;34578;0.000;0.000;2023-05-21T21:05:15;96328.00;;;17.64;62.81
48778;BME280;34578;0.000;0.000;2023-05-21T21:10:15;96330.53;;;17.64;62.77
48778;BME280;34578;0.000;0.000;2023-05-21T21:15:15;96325.47;;;17.67;62.63
48778;BME280;34578;0.000;0.000;2023-05-21T21:20:16;96338.97;;;17.69;62.65
48778;BME280;34578;0.000;0.000;2023-05-21T21:25:17;96333.03;;;17.70;62.27
48778;BME280;34578;0.000;0.000;2023-05-21T21:30:18;96337.28;;;17.68;62.06
48778;BME280;34578;0.000;0.000;2023-05-21T21:35:21;96332.22;;;17.68;62.19
48778;BME280;34578;0.000;0.000;2023-05-21T21:40:23;96332.22;;;17.68;61.88
48778;BME280;34578;0.000;0.000;2023-05-21T21:45:23;96323.78;;;17.69;62.65
48778;BME280;34578;0.000;0.000;2023-05-21T21:50:24;96330.53;;;17.73;70.41
48778;BME280;34578;0.000;0.000;2023-05-21T21:55:24;96329.69;;;17.74;70.28
48778;BME280;34578;0.000;0.000;2023-05-21T22:00:25;96331.34;;;17.73;63.63
48778;BME280;34578;0.000;0.000;2023-05-21T22:05:25;96328.00;;;17.71;62.64
48778;BME280;34578;0.000;0.000;2023-05-21T22:10:29;96331.38;;;17.70;62.65
48778;BME280;34578;0.000;0.000;2023-05-21T22:15:32;96338.09;;;17.68;62.04
48778;BME280;34578;0.000;0.000;2023-05-21T22:20:33;96333.91;;;17.63;62.34
48778;BME280;34578;0.000;0.000;2023-05-21T22:25:34;96338.97;;;17.66;62.20
48778;BME280;34578;0.000;0.000;2023-05-21T22:30:34;96342.38;;;17.65;62.09
48778;BME280;34578;0.000;0.000;2023-05-21T22:35:36;96337.31;;;17.65;62.14
48778;BME280;34578;0.000;0.000;2023-05-21T22:40:37;96344.88;;;17.63;62.03
48778;BME280;34578;0.000;0.000;2023-05-21T22:45:37;96341.50;;;17.64;61.90
48778;BME280;34578;0.000;0.000;2023-05-21T22:50:37;96338.16;;;17.62;61.88
48778;BME280;34578;0.000;0.000;2023-05-21T22:55:38;96339.78;;;17.72;69.57
48778;BME280;34578;0.000;0.000;2023-05-21T23:00:38;96337.28;;;17.74;69.68
48778;BME280;34578;0.000;0.000;2023-05-21T23:05:38;96344.00;;;17.72;63.83
48778;BME280;34578;0.000;0.000;2023-05-21T23:10:39;96345.72;;;17.70;62.48
48778;BME280;34578;0.000;0.000;2023-05-21T23:15:39;96335.59;;;17.64;62.26
48778;BME280;34578;0.000;0.000;2023-05-21T23:20:42;96342.38;;;17.65;62.07
48778;BME280;34578;0.000;0.000;2023-05-21T23:25:43;96352.50;;;17.65;61.97
48778;BME280;34578;0.000;0.000;2023-05-21T23:30:44;96355.84;;;17.64;62.14
48778;BME280;34578;0.000;0.000;2023-05-21T23:35:44;96359.22;;;17.63;62.07
48778;BME280;34578;0.000;0.000;2023-05-21T23:40:44;96364.28;;;17.63;62.16
48778;BME280;34578;0.000;0.000;2023-05-21T23:45:45;96357.56;;;17.59;61.81
48778;BME280;34578;0.000;0.000;2023-05-21T23:50:45;96350.81;;;17.58;61.68
48778;BME280;34578;0.000;0.000;2023-05-21T23:55:46;96363.44;;;17.61;61.75
